sensor_id;sensor_type;location;lat;lon;timestamp;temperature;humidity
65044;DHT22;51617;48.158;16.464;2023-04-15T00:01:47;6.10;99.90
65044;DHT22;51617;48.158;16.464;2023-04-15T00:04:12;6.20;99.90
65044;DHT22;51617;48.158;16.464;2023-04-15T00:06:38;6.20;99.90
65044;DHT22;51617;48.158;16.464;2023-04-15T00:09:04;6.20;99.90
65044;DHT22;51617;48.158;16.464;2023-04-15T00:11:29;6.30;99.90
65044;DHT22;51617;48.158;16.464;2023-04-15T00:13:55;6.20;99.90
65044;DHT22;51617;48.158;16.464;2023-04-15T00:16:21;6.30;99.90
65044;DHT22;51617;48.158;16.464;2023-04-15T00:18:46;6.30;99.90
65044;DHT22;51617;48.158;16.464;2023-04-15T00:21:12;6.30;99.90
65044;DHT22;51617;48.158;16.464;2023-04-15T00:23:37;6.10;99.90
65044;DHT22;51617;48.158;16.464;2023-04-15T00:26:03;6.20;99.90
65044;DHT22;51617;48.158;16.464;2023-04-15T00:28:28;6.20;99.90
65044;DHT22;51617;48.158;16.464;2023-04-15T00:30:55;6.20;99.90
65044;DHT22;51617;48.158;16.464;2023-04-15T00:33:20;6.20;99.90
65044;DHT22;51617;48.158;16.464;2023-04-15T00:35:46;6.20;99.90
65044;DHT22;51617;48.158;16.464;2023-04-15T00:38:11;6.20;99.90
65044;DHT22;51617;48.158;16.464;2023-04-15T00:40:37;6.30;99.90
65044;DHT22;51617;48.158;16.464;2023-04-15T00:43:03;6.30;99.90
65044;DHT22;51617;48.158;16.464;2023-04-15T00:45:28;6.30;99.90
65044;DHT22;51617;48.158;16.464;2023-04-15T00:47:54;6.40;99.90
65044;DHT22;51617;48.158;16.464;2023-04-15T00:50:20;6.40;99.90
65044;DHT22;51617;48.158;16.464;2023-04-15T00:52:45;6.40;99.90
65044;DHT22;51617;48.158;16.464;2023-04-15T00:55:11;6.40;99.90
65044;DHT22;51617;48.158;16.464;2023-04-15T00:57:37;6.40;99.90
65044;DHT22;51617;48.158;16.464;2023-04-15T01:00:04;6.50;99.90
65044;DHT22;51617;48.158;16.464;2023-04-15T01:02:32;6.50;99.90
65044;DHT22;51617;48.158;16.464;2023-04-15T01:04:58;6.40;99.90
65044;DHT22;51617;48.158;16.464;2023-04-15T01:07:23;6.40;99.90
65044;DHT22;51617;48.158;16.464;2023-04-15T01:09:49;6.50;99.90
65044;DHT22;51617;48.158;16.464;2023-04-15T01:12:15;6.50;99.90
65044;DHT22;51617;48.158;16.464;2023-04-15T01:14:41;6.50;99.90
65044;DHT22;51617;48.158;16.464;2023-04-15T01:17:06;6.50;99.90
65044;DHT22;51617;48.158;16.464;2023-04-15T01:19:33;6.50;99.90
65044;DHT22;51617;48.158;16.464;2023-04-15T01:21:58;6.50;99.90
65044;DHT22;51617;48.158;16.464;2023-04-15T01:24:25;6.50;99.90
65044;DHT22;51617;48.158;16.464;2023-04-15T01:26:51;6.50;99.90
65044;DHT22;51617;48.158;16.464;2023-04-15T01:29:16;6.60;99.90
65044;DHT22;51617;48.158;16.464;2023-04-15T01:31:52;6.60;99.90
65044;DHT22;51617;48.158;16.464;2023-04-15T01:34:19;6.60;99.90
65044;DHT22;51617;48.158;16.464;2023-04-15T01:36:45;6.60;99.90
65044;DHT22;51617;48.158;16.464;2023-04-15T01:39:11;6.70;99.90
65044;DHT22;51617;48.158;16.464;2023-04-15T01:41:36;6.70;99.90
65044;DHT22;51617;48.158;16.464;2023-04-15T01:44:02;6.70;99.90
65044;DHT22;51617;48.158;16.464;2023-04-15T01:46:27;6.70;99.90
65044;DHT22;51617;48.158;16.464;2023-04-15T01:48:53;6.80;99.90
65044;DHT22;51617;48.158;16.464;2023-04-15T01:51:19;6.80;99.90
65044;DHT22;51617;48.158;16.464;2023-04-15T01:53:44;6.90;99.90
65044;DHT22;51617;48.158;16.464;2023-04-15T01:56:10;6.90;99.90
65044;DHT22;51617;48.158;16.464;2023-04-15T01:58:36;6.90;99.90
65044;DHT22;51617;48.158;16.464;2023-04-15T02:01:01;6.90;99.90
65044;DHT22;51617;48.158;16.464;2023-04-15T02:03:28;6.90;99.90
65044;DHT22;51617;48.158;16.464;2023-04-15T02:05:56;6.80;99.90
65044;DHT22;51617;48.158;16.464;2023-04-15T02:08:22;6.80;99.90
65044;DHT22;51617;48.158;16.464;2023-04-15T02:10:47;6.80;99.90
65044;DHT22;51617;48.158;16.464;2023-04-15T02:13:13;6.90;99.90
65044;DHT22;51617;48.158;16.464;2023-04-15T02:15:39;7.00;99.90
65044;DHT22;51617;48.158;16.464;2023-04-15T02:18:04;7.10;99.90
65044;DHT22;51617;48.158;16.464;2023-04-15T02:20:30;7.00;99.90
65044;DHT22;51617;48.158;16.464;2023-04-15T02:22:56;7.00;99.90
65044;DHT22;51617;48.158;16.464;2023-04-15T02:25:22;7.00;99.90
65044;DHT22;51617;48.158;16.464;2023-04-15T02:27:47;7.00;99.90
65044;DHT22;51617;48.158;16.464;2023-04-15T02:30:13;7.00;99.90
65044;DHT22;51617;48.158;16.464;2023-04-15T02:32:39;7.00;99.90
65044;DHT22;51617;48.158;16.464;2023-04-15T02:35:05;7.00;99.90
65044;DHT22;51617;48.158;16.464;2023-04-15T02:37:35;7.00;99.90
65044;DHT22;51617;48.158;16.464;2023-04-15T02:40:08;7.00;99.90
65044;DHT22;51617;48.158;16.464;2023-04-15T02:42:36;7.00;99.90
65044;DHT22;51617;48.158;16.464;2023-04-15T02:45:02;7.10;99.90
65044;DHT22;51617;48.158;16.464;2023-04-15T02:47:27;7.10;99.90
65044;DHT22;51617;48.158;16.464;2023-04-15T02:49:53;7.10;99.90
65044;DHT22;51617;48.158;16.464;2023-04-15T02:52:18;7.00;99.90
65044;DHT22;51617;48.158;16.464;2023-04-15T02:54:44;7.10;99.90
65044;DHT22;51617;48.158;16.464;2023-04-15T02:57:09;7.10;99.90
65044;DHT22;51617;48.158;16.464;2023-04-15T02:59:36;7.00;99.90
65044;DHT22;51617;48.158;16.464;2023-04-15T03:02:01;7.10;99.90
65044;DHT22;51617;48.158;16.464;2023-04-15T03:04:27;7.10;99.90
65044;DHT22;51617;48.158;16.464;2023-04-15T03:06:54;7.10;99.90
65044;DHT22;51617;48.158;16.464;2023-04-15T03:09:20;7.10;99.90
65044;DHT22;51617;48.158;16.464;2023-04-15T03:11:46;7.10;99.90
65044;DHT22;51617;48.158;16.464;2023-04-15T03:14:11;7.10;99.90
65044;DHT22;51617;48.158;16.464;2023-04-15T03:16:36;7.10;99.90
65044;DHT22;51617;48.158;16.464;2023-04-15T03:19:02;7.20;99.90
65044;DHT22;51617;48.158;16.464;2023-04-15T03:21:28;7.20;99.90
65044;DHT22;51617;48.158;16.464;2023-04-15T03:23:53;7.30;99.90
65044;DHT22;51617;48.158;16.464;2023-04-15T03:26:25;7.20;99.90
65044;DHT22;51617;48.158;16.464;2023-04-15T03:28:51;7.20;99.90
65044;DHT22;51617;48.158;16.464;2023-04-15T03:31:17;7.20;99.90
65044;DHT22;51617;48.158;16.464;2023-04-15T03:33:42;7.10;99.90
65044;DHT22;51617;48.158;16.464;2023-04-15T03:36:08;7.10;99.90
65044;DHT22;51617;48.158;16.464;2023-04-15T03:38:33;7.10;99.90
65044;DHT22;51617;48.158;16.464;2023-04-15T03:40:59;7.10;99.90
65044;DHT22;51617;48.158;16.464;2023-04-15T03:43:25;7.10;99.90
65044;DHT22;51617;48.158;16.464;2023-04-15T03:45:51;7.10;99.90
65044;DHT22;51617;48.158;16.464;2023-04-15T03:48:16;7.10;99.90
65044;DHT22;51617;48.158;16.464;2023-04-15T03:50:42;7.10;99.90
65044;DHT22;51617;48.158;16.464;2023-04-15T03:53:08;7.20;99.90
65044;DHT22;51617;48.158;16.464;2023-04-15T03:55:33;7.20;99.90
65044;DHT22;51617;48.158;16.464;2023-04-15T03:57:59;7.20;99.90
65044;DHT22;51617;48.158;16.464;2023-04-15T04:00:24;7.20;99.90
65044;DHT22;51617;48.158;16.464;2023-04-15T04:02:50;7.30;99.90
65044;DHT22;51617;48.158;16.464;2023-04-15T04:05:15;7.20;99.90
65044;DHT22;51617;48.158;16.464;2023-04-15T04:07:41;7.30;99.90
65044;DHT22;51617;48.158;16.464;2023-04-15T04:10:07;7.30;99.90
65044;DHT22;51617;48.158;16.464;2023-04-15T04:12:32;7.30;99.90
65044;DHT22;51617;48.158;16.464;2023-04-15T04:14:58;7.30;99.90
65044;DHT22;51617;48.158;16.464;2023-04-15T04:17:23;7.30;99.90
65044;DHT22;51617;48.158;16.464;2023-04-15T04:19:49;7.20;99.90
65044;DHT22;51617;48.158;16.464;2023-04-15T04:22:14;7.20;99.90
65044;DHT22;51617;48.158;16.464;2023-04-15T04:24:40;7.30;99.90
65044;DHT22;51617;48.158;16.464;2023-04-15T04:27:06;7.30;99.90
65044;DHT22;51617;48.158;16.464;2023-04-15T04:29:31;7.30;99.90
65044;DHT22;51617;48.158;16.464;2023-04-15T04:31:57;7.30;99.90
65044;DHT22;51617;48.158;16.464;2023-04-15T04:34:22;7.30;99.90
65044;DHT22;51617;48.158;16.464;2023-04-15T04:36:48;7.30;99.90
65044;DHT22;51617;48.158;16.464;2023-04-15T04:39:13;7.40;99.90
65044;DHT22;51617;48.158;16.464;2023-04-15T04:41:39;7.40;99.90
65044;DHT22;51617;48.158;16.464;2023-04-15T04:44:04;7.40;99.90
65044;DHT22;51617;48.158;16.464;2023-04-15T04:46:30;7.40;99.90
65044;DHT22;51617;48.158;16.464;2023-04-15T04:48:55;7.40;99.90
65044;DHT22;51617;48.158;16.464;2023-04-15T04:51:21;7.30;99.90
65044;DHT22;51617;48.158;16.464;2023-04-15T04:53:46;7.30;99.90
65044;DHT22;51617;48.158;16.464;2023-04-15T04:56:12;7.30;99.90
65044;DHT22;51617;48.158;16.464;2023-04-15T04:58:37;7.40;99.90
65044;DHT22;51617;48.158;16.464;2023-04-15T05:01:03;7.40;99.90
65044;DHT22;51617;48.158;16.464;2023-04-15T05:03:28;7.40;99.90
65044;DHT22;51617;48.158;16.464;2023-04-15T05:05:54;7.50;99.90
65044;DHT22;51617;48.158;16.464;2023-04-15T05:08:20;7.50;99.90
65044;DHT22;51617;48.158;16.464;2023-04-15T05:10:45;7.40;99.90
65044;DHT22;51617;48.158;16.464;2023-04-15T05:13:11;7.40;99.90
65044;DHT22;51617;48.158;16.464;2023-04-15T05:15:37;7.40;99.90
65044;DHT22;51617;48.158;16.464;2023-04-15T05:18:05;7.40;99.90
65044;DHT22;51617;48.158;16.464;2023-04-15T05:20:31;7.50;99.90
65044;DHT22;51617;48.158;16.464;2023-04-15T05:22:56;7.60;99.90
65044;DHT22;51617;48.158;16.464;2023-04-15T05:25:22;7.60;99.90
65044;DHT22;51617;48.158;16.464;2023-04-15T05:27:47;7.70;99.90
65044;DHT22;51617;48.158;16.464;2023-04-15T05:30:13;7.80;99.90
65044;DHT22;51617;48.158;16.464;2023-04-15T05:32:38;7.80;99.90
65044;DHT22;51617;48.158;16.464;2023-04-15T05:35:04;7.90;99.90
65044;DHT22;51617;48.158;16.464;2023-04-15T05:37:30;7.90;99.90
65044;DHT22;51617;48.158;16.464;2023-04-15T05:39:56;7.90;99.90
65044;DHT22;51617;48.158;16.464;2023-04-15T05:42:22;8.00;99.90
65044;DHT22;51617;48.158;16.464;2023-04-15T05:44:47;8.10;99.90
65044;DHT22;51617;48.158;16.464;2023-04-15T05:47:13;8.10;99.90
65044;DHT22;51617;48.158;16.464;2023-04-15T05:49:38;8.30;99.90
65044;DHT22;51617;48.158;16.464;2023-04-15T05:52:04;8.30;99.90
65044;DHT22;51617;48.158;16.464;2023-04-15T05:54:30;8.50;99.90
65044;DHT22;51617;48.158;16.464;2023-04-15T05:56:56;8.60;99.90
65044;DHT22;51617;48.158;16.464;2023-04-15T05:59:22;8.70;99.90
65044;DHT22;51617;48.158;16.464;2023-04-15T06:01:48;8.70;99.90
65044;DHT22;51617;48.158;16.464;2023-04-15T06:04:13;8.80;99.90
65044;DHT22;51617;48.158;16.464;2023-04-15T06:06:39;8.90;99.90
65044;DHT22;51617;48.158;16.464;2023-04-15T06:09:05;9.00;99.90
65044;DHT22;51617;48.158;16.464;2023-04-15T06:11:30;9.00;99.90
65044;DHT22;51617;48.158;16.464;2023-04-15T06:13:56;9.10;99.90
65044;DHT22;51617;48.158;16.464;2023-04-15T06:16:21;9.20;99.90
65044;DHT22;51617;48.158;16.464;2023-04-15T06:18:47;9.20;99.90
65044;DHT22;51617;48.158;16.464;2023-04-15T06:21:13;9.20;99.90
65044;DHT22;51617;48.158;16.464;2023-04-15T06:23:39;9.30;99.90
65044;DHT22;51617;48.158;16.464;2023-04-15T06:26:05;9.20;99.90
65044;DHT22;51617;48.158;16.464;2023-04-15T06:28:31;9.20;99.90
65044;DHT22;51617;48.158;16.464;2023-04-15T06:30:56;9.20;99.90
65044;DHT22;51617;48.158;16.464;2023-04-15T06:33:22;9.20;99.90
65044;DHT22;51617;48.158;16.464;2023-04-15T06:35:47;9.20;99.90
65044;DHT22;51617;48.158;16.464;2023-04-15T06:38:13;9.20;99.90
65044;DHT22;51617;48.158;16.464;2023-04-15T06:40:39;9.40;99.90
65044;DHT22;51617;48.158;16.464;2023-04-15T06:43:05;9.30;99.90
65044;DHT22;51617;48.158;16.464;2023-04-15T06:45:30;9.40;99.90
65044;DHT22;51617;48.158;16.464;2023-04-15T06:47:56;9.50;99.90
65044;DHT22;51617;48.158;16.464;2023-04-15T06:50:22;9.60;99.90
65044;DHT22;51617;48.158;16.464;2023-04-15T06:52:47;9.60;99.90
65044;DHT22;51617;48.158;16.464;2023-04-15T06:55:13;9.60;99.90
65044;DHT22;51617;48.158;16.464;2023-04-15T06:57:39;9.60;99.90
65044;DHT22;51617;48.158;16.464;2023-04-15T07:00:04;9.60;99.90
65044;DHT22;51617;48.158;16.464;2023-04-15T07:02:31;9.60;99.90
65044;DHT22;51617;48.158;16.464;2023-04-15T07:04:57;9.70;99.90
65044;DHT22;51617;48.158;16.464;2023-04-15T07:07:23;9.70;99.90
65044;DHT22;51617;48.158;16.464;2023-04-15T07:09:48;9.70;99.90
65044;DHT22;51617;48.158;16.464;2023-04-15T07:12:14;9.80;99.90
65044;DHT22;51617;48.158;16.464;2023-04-15T07:14:39;9.90;99.90
65044;DHT22;51617;48.158;16.464;2023-04-15T07:17:05;9.90;99.90
65044;DHT22;51617;48.158;16.464;2023-04-15T07:19:30;10.00;99.90
65044;DHT22;51617;48.158;16.464;2023-04-15T07:21:56;10.10;99.90
65044;DHT22;51617;48.158;16.464;2023-04-15T07:24:21;10.10;99.90
65044;DHT22;51617;48.158;16.464;2023-04-15T07:26:52;10.10;99.90
65044;DHT22;51617;48.158;16.464;2023-04-15T07:29:17;10.10;99.90
65044;DHT22;51617;48.158;16.464;2023-04-15T07:31:43;10.10;99.90
65044;DHT22;51617;48.158;16.464;2023-04-15T07:34:08;10.20;99.90
65044;DHT22;51617;48.158;16.464;2023-04-15T07:36:34;10.30;99.90
65044;DHT22;51617;48.158;16.464;2023-04-15T07:38:59;10.40;99.90
65044;DHT22;51617;48.158;16.464;2023-04-15T07:41:27;10.50;99.90
65044;DHT22;51617;48.158;16.464;2023-04-15T07:43:54;10.60;99.90
65044;DHT22;51617;48.158;16.464;2023-04-15T07:46:19;10.70;99.90
65044;DHT22;51617;48.158;16.464;2023-04-15T07:48:45;10.60;99.90
65044;DHT22;51617;48.158;16.464;2023-04-15T07:51:11;10.70;99.90
65044;DHT22;51617;48.158;16.464;2023-04-15T07:53:37;10.70;99.90
65044;DHT22;51617;48.158;16.464;2023-04-15T07:56:02;10.70;99.90
65044;DHT22;51617;48.158;16.464;2023-04-15T07:58:28;10.80;99.90
65044;DHT22;51617;48.158;16.464;2023-04-15T08:00:54;11.00;99.90
65044;DHT22;51617;48.158;16.464;2023-04-15T08:03:20;11.00;99.90
65044;DHT22;51617;48.158;16.464;2023-04-15T08:05:46;11.10;99.80
65044;DHT22;51617;48.158;16.464;2023-04-15T08:08:12;11.10;99.80
65044;DHT22;51617;48.158;16.464;2023-04-15T08:10:37;11.10;99.90
65044;DHT22;51617;48.158;16.464;2023-04-15T08:13:03;11.10;99.90
65044;DHT22;51617;48.158;16.464;2023-04-15T08:15:28;11.10;99.90
65044;DHT22;51617;48.158;16.464;2023-04-15T08:17:54;11.00;99.90
65044;DHT22;51617;48.158;16.464;2023-04-15T08:20:19;10.90;99.90
65044;DHT22;51617;48.158;16.464;2023-04-15T08:22:45;10.90;99.80
65044;DHT22;51617;48.158;16.464;2023-04-15T08:25:16;10.90;99.90
65044;DHT22;51617;48.158;16.464;2023-04-15T08:27:41;10.90;99.90
65044;DHT22;51617;48.158;16.464;2023-04-15T08:30:07;10.80;99.90
65044;DHT22;51617;48.158;16.464;2023-04-15T08:32:32;10.80;99.90
65044;DHT22;51617;48.158;16.464;2023-04-15T08:34:58;10.80;99.90
65044;DHT22;51617;48.158;16.464;2023-04-15T08:37:24;10.90;99.90
65044;DHT22;51617;48.158;16.464;2023-04-15T08:39:51;10.90;99.90
65044;DHT22;51617;48.158;16.464;2023-04-15T08:42:16;10.90;99.90
65044;DHT22;51617;48.158;16.464;2023-04-15T08:44:43;10.90;99.70
65044;DHT22;51617;48.158;16.464;2023-04-15T08:47:11;10.80;99.80
65044;DHT22;51617;48.158;16.464;2023-04-15T08:49:38;10.80;99.90
65044;DHT22;51617;48.158;16.464;2023-04-15T08:52:03;10.60;99.50
65044;DHT22;51617;48.158;16.464;2023-04-15T08:54:30;10.40;99.90
65044;DHT22;51617;48.158;16.464;2023-04-15T08:56:56;10.40;99.90
65044;DHT22;51617;48.158;16.464;2023-04-15T08:59:22;10.40;99.90
65044;DHT22;51617;48.158;16.464;2023-04-15T09:01:48;10.50;99.90
65044;DHT22;51617;48.158;16.464;2023-04-15T09:04:15;10.50;99.90
65044;DHT22;51617;48.158;16.464;2023-04-15T09:06:41;10.50;99.90
65044;DHT22;51617;48.158;16.464;2023-04-15T09:09:06;10.40;99.90
65044;DHT22;51617;48.158;16.464;2023-04-15T09:11:32;10.50;99.90
65044;DHT22;51617;48.158;16.464;2023-04-15T09:13:58;10.50;99.90
65044;DHT22;51617;48.158;16.464;2023-04-15T09:16:24;10.50;99.90
65044;DHT22;51617;48.158;16.464;2023-04-15T09:18:49;10.60;99.90
65044;DHT22;51617;48.158;16.464;2023-04-15T09:21:16;10.50;99.80
65044;DHT22;51617;48.158;16.464;2023-04-15T09:26:28;10.50;99.90
65044;DHT22;51617;48.158;16.464;2023-04-15T09:28:54;10.50;99.90
65044;DHT22;51617;48.158;16.464;2023-04-15T09:31:28;10.50;99.90
65044;DHT22;51617;48.158;16.464;2023-04-15T09:33:54;10.50;99.90
65044;DHT22;51617;48.158;16.464;2023-04-15T09:36:21;10.60;99.90
65044;DHT22;51617;48.158;16.464;2023-04-15T09:38:56;10.70;99.90
65044;DHT22;51617;48.158;16.464;2023-04-15T09:41:22;10.80;99.90
65044;DHT22;51617;48.158;16.464;2023-04-15T09:43:48;10.80;99.90
65044;DHT22;51617;48.158;16.464;2023-04-15T09:46:14;10.90;99.90
65044;DHT22;51617;48.158;16.464;2023-04-15T09:48:39;10.80;99.90
65044;DHT22;51617;48.158;16.464;2023-04-15T09:51:05;10.90;99.90
65044;DHT22;51617;48.158;16.464;2023-04-15T09:53:32;10.90;99.90
65044;DHT22;51617;48.158;16.464;2023-04-15T09:55:59;10.90;99.90
65044;DHT22;51617;48.158;16.464;2023-04-15T09:58:31;10.90;99.90
65044;DHT22;51617;48.158;16.464;2023-04-15T10:00:57;10.90;99.60
65044;DHT22;51617;48.158;16.464;2023-04-15T10:03:24;10.90;99.20
65044;DHT22;51617;48.158;16.464;2023-04-15T10:05:51;10.90;99.70
65044;DHT22;51617;48.158;16.464;2023-04-15T10:08:18;11.00;99.90
65044;DHT22;51617;48.158;16.464;2023-04-15T10:10:45;11.00;99.90
65044;DHT22;51617;48.158;16.464;2023-04-15T10:13:18;11.00;99.80
65044;DHT22;51617;48.158;16.464;2023-04-15T10:15:43;10.90;98.70
65044;DHT22;51617;48.158;16.464;2023-04-15T10:18:10;10.90;99.00
65044;DHT22;51617;48.158;16.464;2023-04-15T10:20:37;10.90;99.40
65044;DHT22;51617;48.158;16.464;2023-04-15T10:23:03;11.00;99.00
65044;DHT22;51617;48.158;16.464;2023-04-15T10:25:28;10.90;97.80
65044;DHT22;51617;48.158;16.464;2023-04-15T10:27:54;10.90;97.40
65044;DHT22;51617;48.158;16.464;2023-04-15T10:30:21;10.90;96.80
65044;DHT22;51617;48.158;16.464;2023-04-15T10:32:47;10.90;97.20
65044;DHT22;51617;48.158;16.464;2023-04-15T10:35:12;10.90;97.70
65044;DHT22;51617;48.158;16.464;2023-04-15T10:37:38;11.00;97.90
65044;DHT22;51617;48.158;16.464;2023-04-15T10:42:48;11.10;97.40
65044;DHT22;51617;48.158;16.464;2023-04-15T10:45:17;11.20;97.80
65044;DHT22;51617;48.158;16.464;2023-04-15T10:47:43;11.20;97.50
65044;DHT22;51617;48.158;16.464;2023-04-15T10:50:12;11.20;97.90
65044;DHT22;51617;48.158;16.464;2023-04-15T10:52:40;11.30;98.00
65044;DHT22;51617;48.158;16.464;2023-04-15T10:57:38;11.40;97.90
65044;DHT22;51617;48.158;16.464;2023-04-15T11:02:43;11.30;97.80
65044;DHT22;51617;48.158;16.464;2023-04-15T11:05:10;11.10;98.50
65044;DHT22;51617;48.158;16.464;2023-04-15T11:10:02;11.10;98.60
65044;DHT22;51617;48.158;16.464;2023-04-15T11:12:34;11.10;98.90
65044;DHT22;51617;48.158;16.464;2023-04-15T11:17:45;11.00;99.40
65044;DHT22;51617;48.158;16.464;2023-04-15T11:20:13;11.10;99.00
65044;DHT22;51617;48.158;16.464;2023-04-15T11:22:45;11.10;99.20
65044;DHT22;51617;48.158;16.464;2023-04-15T11:25:20;11.20;98.80
65044;DHT22;51617;48.158;16.464;2023-04-15T11:27:46;11.20;98.40
65044;DHT22;51617;48.158;16.464;2023-04-15T11:32:44;11.30;98.70
65044;DHT22;51617;48.158;16.464;2023-04-15T11:35:10;11.40;99.10
65044;DHT22;51617;48.158;16.464;2023-04-15T11:37:35;11.40;98.70
65044;DHT22;51617;48.158;16.464;2023-04-15T11:40:01;11.50;97.60
65044;DHT22;51617;48.158;16.464;2023-04-15T11:42:27;11.40;96.70
65044;DHT22;51617;48.158;16.464;2023-04-15T11:45:26;11.30;96.20
65044;DHT22;51617;48.158;16.464;2023-04-15T11:47:45;11.30;97.20
65044;DHT22;51617;48.158;16.464;2023-04-15T11:50:17;11.40;97.60
65044;DHT22;51617;48.158;16.464;2023-04-15T11:53:04;11.50;96.70
65044;DHT22;51617;48.158;16.464;2023-04-15T11:55:29;11.50;97.30
65044;DHT22;51617;48.158;16.464;2023-04-15T12:00:40;11.70;95.90
65044;DHT22;51617;48.158;16.464;2023-04-15T12:06:01;11.70;95.80
65044;DHT22;51617;48.158;16.464;2023-04-15T12:08:23;11.60;94.80
65044;DHT22;51617;48.158;16.464;2023-04-15T12:10:48;11.50;94.60
65044;DHT22;51617;48.158;16.464;2023-04-15T12:13:14;11.40;95.60
65044;DHT22;51617;48.158;16.464;2023-04-15T12:15:39;11.50;95.30
65044;DHT22;51617;48.158;16.464;2023-04-15T12:18:05;11.60;94.70
65044;DHT22;51617;48.158;16.464;2023-04-15T12:20:30;11.50;95.70
65044;DHT22;51617;48.158;16.464;2023-04-15T12:23:05;11.60;97.60
65044;DHT22;51617;48.158;16.464;2023-04-15T12:25:34;11.80;96.60
65044;DHT22;51617;48.158;16.464;2023-04-15T12:28:00;11.80;95.80
65044;DHT22;51617;48.158;16.464;2023-04-15T12:30:25;11.90;96.00
65044;DHT22;51617;48.158;16.464;2023-04-15T12:32:51;12.10;95.70
65044;DHT22;51617;48.158;16.464;2023-04-15T12:35:16;12.20;95.50
65044;DHT22;51617;48.158;16.464;2023-04-15T12:37:43;12.30;95.10
65044;DHT22;51617;48.158;16.464;2023-04-15T12:40:09;12.10;94.40
65044;DHT22;51617;48.158;16.464;2023-04-15T12:42:37;12.00;94.70
65044;DHT22;51617;48.158;16.464;2023-04-15T12:45:03;11.80;95.40
65044;DHT22;51617;48.158;16.464;2023-04-15T12:47:29;11.60;95.10
65044;DHT22;51617;48.158;16.464;2023-04-15T12:49:54;11.40;95.70
65044;DHT22;51617;48.158;16.464;2023-04-15T12:52:20;11.30;95.50
65044;DHT22;51617;48.158;16.464;2023-04-15T12:54:45;11.30;95.60
65044;DHT22;51617;48.158;16.464;2023-04-15T12:57:11;11.30;96.60
65044;DHT22;51617;48.158;16.464;2023-04-15T12:59:36;11.30;96.90
65044;DHT22;51617;48.158;16.464;2023-04-15T13:02:02;11.30;96.10
65044;DHT22;51617;48.158;16.464;2023-04-15T13:04:28;11.40;96.30
65044;DHT22;51617;48.158;16.464;2023-04-15T13:06:54;11.50;95.80
65044;DHT22;51617;48.158;16.464;2023-04-15T13:09:20;11.60;96.40
65044;DHT22;51617;48.158;16.464;2023-04-15T13:11:46;11.60;95.70
65044;DHT22;51617;48.158;16.464;2023-04-15T13:14:11;11.60;95.60
65044;DHT22;51617;48.158;16.464;2023-04-15T13:16:37;11.50;95.20
65044;DHT22;51617;48.158;16.464;2023-04-15T13:19:02;11.50;96.40
65044;DHT22;51617;48.158;16.464;2023-04-15T13:21:28;11.60;95.60
65044;DHT22;51617;48.158;16.464;2023-04-15T13:23:55;11.70;94.50
65044;DHT22;51617;48.158;16.464;2023-04-15T13:26:21;11.80;94.70
65044;DHT22;51617;48.158;16.464;2023-04-15T13:28:46;11.90;93.40
65044;DHT22;51617;48.158;16.464;2023-04-15T13:31:12;12.00;93.90
65044;DHT22;51617;48.158;16.464;2023-04-15T13:33:37;12.00;93.80
65044;DHT22;51617;48.158;16.464;2023-04-15T13:36:03;12.10;93.30
65044;DHT22;51617;48.158;16.464;2023-04-15T13:38:28;12.10;92.60
65044;DHT22;51617;48.158;16.464;2023-04-15T13:40:54;11.90;92.20
65044;DHT22;51617;48.158;16.464;2023-04-15T13:43:20;11.80;92.70
65044;DHT22;51617;48.158;16.464;2023-04-15T13:45:46;11.80;93.20
65044;DHT22;51617;48.158;16.464;2023-04-15T13:48:11;11.70;93.10
65044;DHT22;51617;48.158;16.464;2023-04-15T13:50:37;11.50;93.40
65044;DHT22;51617;48.158;16.464;2023-04-15T13:53:02;11.40;94.30
65044;DHT22;51617;48.158;16.464;2023-04-15T13:55:28;11.40;94.20
65044;DHT22;51617;48.158;16.464;2023-04-15T13:57:53;11.20;94.00
65044;DHT22;51617;48.158;16.464;2023-04-15T14:00:19;11.20;94.40
65044;DHT22;51617;48.158;16.464;2023-04-15T14:02:44;11.10;93.90
65044;DHT22;51617;48.158;16.464;2023-04-15T14:05:10;11.00;93.70
65044;DHT22;51617;48.158;16.464;2023-04-15T14:07:36;11.10;93.90
65044;DHT22;51617;48.158;16.464;2023-04-15T14:10:01;11.30;93.60
65044;DHT22;51617;48.158;16.464;2023-04-15T14:12:27;11.40;93.40
65044;DHT22;51617;48.158;16.464;2023-04-15T14:14:52;11.40;93.70
65044;DHT22;51617;48.158;16.464;2023-04-15T14:17:18;11.40;93.30
65044;DHT22;51617;48.158;16.464;2023-04-15T14:19:43;11.50;94.00
65044;DHT22;51617;48.158;16.464;2023-04-15T14:22:09;11.70;94.10
65044;DHT22;51617;48.158;16.464;2023-04-15T14:24:35;11.70;92.60
65044;DHT22;51617;48.158;16.464;2023-04-15T14:27:00;11.70;92.30
65044;DHT22;51617;48.158;16.464;2023-04-15T14:29:26;11.70;92.40
65044;DHT22;51617;48.158;16.464;2023-04-15T14:31:52;11.70;92.70
65044;DHT22;51617;48.158;16.464;2023-04-15T14:34:17;11.70;93.40
65044;DHT22;51617;48.158;16.464;2023-04-15T14:36:43;11.90;92.70
65044;DHT22;51617;48.158;16.464;2023-04-15T14:39:09;12.00;92.50
65044;DHT22;51617;48.158;16.464;2023-04-15T14:41:35;12.10;92.40
65044;DHT22;51617;48.158;16.464;2023-04-15T14:44:00;12.10;92.20
65044;DHT22;51617;48.158;16.464;2023-04-15T14:46:26;12.00;92.30
65044;DHT22;51617;48.158;16.464;2023-04-15T14:48:51;11.90;92.20
65044;DHT22;51617;48.158;16.464;2023-04-15T14:51:17;11.90;92.50
65044;DHT22;51617;48.158;16.464;2023-04-15T14:53:43;11.90;92.60
65044;DHT22;51617;48.158;16.464;2023-04-15T14:56:09;12.00;92.40
65044;DHT22;51617;48.158;16.464;2023-04-15T14:58:34;12.10;92.30
65044;DHT22;51617;48.158;16.464;2023-04-15T15:01:00;12.40;91.80
65044;DHT22;51617;48.158;16.464;2023-04-15T15:03:27;12.30;91.40
65044;DHT22;51617;48.158;16.464;2023-04-15T15:05:52;12.10;91.90
65044;DHT22;51617;48.158;16.464;2023-04-15T15:08:18;11.90;91.60
65044;DHT22;51617;48.158;16.464;2023-04-15T15:10:43;11.80;92.70
65044;DHT22;51617;48.158;16.464;2023-04-15T15:13:09;11.80;92.00
65044;DHT22;51617;48.158;16.464;2023-04-15T15:15:36;11.50;92.30
65044;DHT22;51617;48.158;16.464;2023-04-15T15:18:01;11.30;92.30
65044;DHT22;51617;48.158;16.464;2023-04-15T15:20:27;11.10;92.40
65044;DHT22;51617;48.158;16.464;2023-04-15T15:22:53;10.90;93.00
65044;DHT22;51617;48.158;16.464;2023-04-15T15:25:19;10.80;93.40
65044;DHT22;51617;48.158;16.464;2023-04-15T15:27:44;10.90;93.60
65044;DHT22;51617;48.158;16.464;2023-04-15T15:30:10;11.00;93.60
65044;DHT22;51617;48.158;16.464;2023-04-15T15:32:37;11.10;93.60
65044;DHT22;51617;48.158;16.464;2023-04-15T15:35:02;11.00;93.50
65044;DHT22;51617;48.158;16.464;2023-04-15T15:37:29;11.00;93.90
65044;DHT22;51617;48.158;16.464;2023-04-15T15:39:54;11.00;93.50